Time;durP1;ratioP1;P1;durP2;ratioP2;P2;SDS_P1;SDS_P2;PMS_P1;PMS_P2;Temp;Humidity;BMP_temperature;BMP_pressure;BME280_temperature;BME280_humidity;BME280_pressure;Samples;Min_cycle;Max_cycle;Signal;HPM_P1;HPM_P2
2021/09/27 00:00:26;;;;;;;24.10;16.25;;;13.90;97.30;;;;;;5069485;28;20025;-69
2021/09/27 00:02:52;;;;;;;23.27;16.30;;;14.00;97.80;;;;;;5068191;28;20031;-68
2021/09/27 00:05:18;;;;;;;23.55;16.40;;;14.00;98.00;;;;;;5074258;28;20032;-68
2021/09/27 00:07:45;;;;;;;20.63;15.45;;;14.00;98.00;;;;;;5076369;28;20036;-68
2021/09/27 00:10:14;;;;;;;20.95;15.57;;;13.90;98.00;;;;;;5075947;28;20031;-68
2021/09/27 00:12:43;;;;;;;23.55;15.40;;;13.80;98.00;;;;;;5070869;28;20321;-69
2021/09/27 00:15:15;;;;;;;24.90;16.73;;;13.80;98.00;;;;;;5065339;28;20013;-67
2021/09/27 00:17:40;;;;;;;23.13;15.65;;;13.70;98.00;;;;;;5062186;28;20041;-69
2021/09/27 00:20:07;;;;;;;23.50;15.38;;;13.60;98.00;;;;;;5074996;28;20097;-69
2021/09/27 00:22:33;;;;;;;21.50;14.63;;;13.50;97.80;;;;;;5075692;28;20035;-69
2021/09/27 00:24:59;;;;;;;17.77;13.20;;;13.50;97.80;;;;;;5075672;28;20433;-70
2021/09/27 00:27:24;;;;;;;21.50;15.13;;;13.50;98.00;;;;;;5072664;28;20033;-69
2021/09/27 00:29:50;;;;;;;23.60;15.02;;;13.50;98.00;;;;;;5062755;28;20086;-69
2021/09/27 00:32:16;;;;;;;21.75;14.95;;;13.50;98.00;;;;;;5071022;28;20028;-69
2021/09/27 00:34:44;;;;;;;21.60;14.35;;;13.40;98.00;;;;;;5074543;28;20020;-69
2021/09/27 00:37:10;;;;;;;21.52;12.80;;;13.40;98.00;;;;;;5075077;28;20025;-69
2021/09/27 00:39:35;;;;;;;19.30;13.27;;;13.40;98.00;;;;;;5074877;28;20048;-69
2021/09/27 00:42:01;;;;;;;17.92;12.98;;;13.40;98.00;;;;;;5072252;28;20029;-69
2021/09/27 00:44:27;;;;;;;25.30;13.10;;;13.50;98.00;;;;;;5057201;28;20029;-69
2021/09/27 00:46:53;;;;;;;19.90;12.68;;;13.50;98.00;;;;;;5054586;28;20334;-69
2021/09/27 00:49:19;;;;;;;20.00;12.85;;;13.60;98.00;;;;;;5072987;28;20067;-69
2021/09/27 00:51:45;;;;;;;16.77;11.23;;;13.70;98.00;;;;;;5075473;28;20027;-70
2021/09/27 00:54:25;;;;;;;17.33;11.98;;;13.80;98.00;;;;;;5071262;28;20024;-69
2021/09/27 00:57:03;;;;;;;21.40;12.20;;;13.90;98.00;;;;;;5072641;28;20050;-69
2021/09/27 00:59:31;;;;;;;16.90;11.90;;;13.80;98.00;;;;;;5074084;28;20035;-69
2021/09/27 01:02:00;;;;;;;18.10;11.88;;;13.70;98.00;;;;;;5059312;28;20032;-69
2021/09/27 01:04:26;;;;;;;23.10;14.10;;;13.60;98.00;;;;;;5062251;28;20040;-70
2021/09/27 01:07:09;;;;;;;17.38;11.55;;;13.50;98.00;;;;;;5066021;28;20036;-69
2021/09/27 01:09:50;;;;;;;16.73;11.83;;;13.50;98.00;;;;;;5073427;28;20040;-70
2021/09/27 01:12:38;;;;;;;18.73;12.63;;;13.50;98.00;;;;;;5072980;28;20279;-69
2021/09/27 01:15:27;;;;;;;16.38;10.80;;;13.50;98.00;;;;;;5073016;28;20027;-69
2021/09/27 01:18:02;;;;;;;15.88;11.43;;;13.60;98.00;;;;;;5060432;28;20052;-69
2021/09/27 01:20:46;;;;;;;;;;;13.70;98.00;;;;;;5059316;28;20021;-69
2021/09/27 01:23:37;;;;;;;18.35;10.15;;;13.80;98.00;;;;;;5074375;28;19904;-69
2021/09/27 01:26:09;;;;;;;18.10;10.82;;;13.80;98.00;;;;;;5066082;28;20107;-69
2021/09/27 01:28:58;;;;;;;19.67;12.25;;;13.80;98.00;;;;;;5062952;28;20366;-69
2021/09/27 01:31:24;;;;;;;15.32;10.75;;;13.70;98.00;;;;;;5080980;28;20024;-69
2021/09/27 01:33:59;;;;;;;17.58;11.75;;;13.60;98.00;;;;;;5076825;28;20018;-69
2021/09/27 01:36:40;;;;;;;15.65;10.82;;;13.70;98.00;;;;;;5077696;28;20115;-70
2021/09/27 01:39:20;;;;;;;17.88;10.85;;;13.70;98.00;;;;;;5065874;28;20399;-71
2021/09/27 01:41:48;;;;;;;16.13;11.43;;;13.70;98.00;;;;;;5078455;28;20029;-70
2021/09/27 01:44:26;;;;;;;17.05;10.90;;;13.70;98.00;;;;;;5073458;28;20024;-70
2021/09/27 01:46:58;;;;;;;20.50;12.57;;;13.60;98.00;;;;;;5074953;28;20095;-70
2021/09/27 01:49:41;;;;;;;18.92;11.38;;;13.40;98.00;;;;;;5072009;28;20033;-70
2021/09/27 01:52:25;;;;;;;16.17;10.82;;;13.20;98.00;;;;;;5069911;28;20025;-69
2021/09/27 01:54:52;;;;;;;;;;;13.10;98.00;;;;;;5074270;28;20021;-69
2021/09/27 01:57:41;;;;;;;17.85;11.98;;;13.00;98.00;;;;;;5069837;28;19911;-70
2021/09/27 02:00:15;;;;;;;16.90;11.38;;;13.00;98.00;;;;;;5076333;28;20460;-69
2021/09/27 02:02:51;;;;;;;;;;;12.80;98.00;;;;;;5069485;28;20029;-69
2021/09/27 02:05:29;;;;;;;17.85;11.43;;;12.80;98.00;;;;;;5074674;28;19940;-69
2021/09/27 02:08:11;;;;;;;14.98;9.93;;;12.70;98.00;;;;;;5068515;28;20455;-69
2021/09/27 02:10:55;;;;;;;16.42;11.75;;;12.80;97.80;;;;;;5064215;28;20025;-69
2021/09/27 02:13:30;;;;;;;15.65;10.38;;;13.00;98.00;;;;;;5078610;28;20054;-69
2021/09/27 02:16:22;;;;;;;17.65;11.40;;;13.00;98.00;;;;;;5075978;28;20057;-70
2021/09/27 02:19:27;;;;;;;16.42;11.50;;;12.90;98.00;;;;;;5077346;28;20032;-69
2021/09/27 02:21:58;;;;;;;17.60;11.07;;;12.90;98.00;;;;;;5065966;28;20029;-69
2021/09/27 02:24:45;;;;;;;20.00;12.32;;;12.80;98.00;;;;;;5081460;28;20052;-69
2021/09/27 02:27:11;;;;;;;15.80;11.02;;;12.60;98.00;;;;;;5077754;28;20016;-69
2021/09/27 02:29:37;;;;;;;18.13;11.82;;;12.40;98.00;;;;;;5077907;28;20029;-69
2021/09/27 02:32:16;;;;;;;17.02;11.60;;;12.40;98.00;;;;;;5071059;28;20409;-69
2021/09/27 02:34:54;;;;;;;20.38;11.82;;;12.30;97.90;;;;;;5075912;28;20017;-69
2021/09/27 02:37:49;;;;;;;16.52;11.32;;;12.30;97.80;;;;;;5075348;28;20021;-69
2021/09/27 02:40:28;;;;;;;16.48;11.55;;;12.20;97.30;;;;;;5074402;28;20023;-69
2021/09/27 02:42:57;;;;;;;18.30;12.27;;;12.10;97.50;;;;;;5073282;28;20020;-69
2021/09/27 02:45:25;;;;;;;18.27;11.40;;;12.00;97.00;;;;;;5066471;28;20024;-69
2021/09/27 02:47:58;;;;;;;18.75;11.63;;;12.00;96.60;;;;;;5065911;28;20372;-69
2021/09/27 02:50:27;;;;;;;19.77;12.80;;;12.10;96.00;;;;;;5071600;28;20032;-69
2021/09/27 02:52:55;;;;;;;17.20;11.88;;;12.20;96.00;;;;;;5072843;28;20112;-69
2021/09/27 02:55:28;;;;;;;20.95;12.52;;;12.20;96.50;;;;;;5076484;28;20431;-69
2021/09/27 02:58:09;;;;;;;15.50;10.27;;;12.20;96.30;;;;;;5076277;28;20103;-69
2021/09/27 03:01:05;;;;;;;19.95;12.13;;;12.10;96.30;;;;;;5070837;28;20318;-69
2021/09/27 03:03:33;;;;;;;18.08;12.13;;;12.00;96.40;;;;;;5064686;28;20326;-69
2021/09/27 03:06:02;;;;;;;19.50;11.95;;;12.00;96.30;;;;;;5072672;28;20020;-69
2021/09/27 03:09:04;;;;;;;17.48;11.98;;;12.00;95.60;;;;;;5076590;28;20513;-69
2021/09/27 03:11:48;;;;;;;17.92;11.55;;;12.10;96.00;;;;;;5073261;28;20024;-69
2021/09/27 03:14:36;;;;;;;18.85;12.05;;;12.00;96.30;;;;;;5075142;28;20352;-69
2021/09/27 03:17:17;;;;;;;18.15;11.88;;;11.90;96.20;;;;;;5073210;28;20044;-69
2021/09/27 03:20:08;;;;;;;19.52;12.88;;;11.90;94.90;;;;;;5073600;28;20482;-69
2021/09/27 03:22:51;;;;;;;21.48;12.20;;;12.00;95.50;;;;;;5070882;28;20447;-69
2021/09/27 03:25:25;;;;;;;17.83;11.32;;;11.90;95.80;;;;;;5060073;28;20100;-69
2021/09/27 03:28:27;;;;;;;20.77;12.73;;;11.90;95.40;;;;;;5074198;28;20028;-69
2021/09/27 03:31:08;;;;;;;19.98;12.68;;;12.00;95.00;;;;;;5073791;28;20036;-69
2021/09/27 03:33:52;;;;;;;19.80;12.23;;;12.10;94.70;;;;;;5065945;28;20017;-69
2021/09/27 03:36:30;;;;;;;18.63;12.05;;;12.10;95.30;;;;;;5070115;28;20493;-70
2021/09/27 03:39:20;;;;;;;18.80;12.15;;;12.20;94.50;;;;;;5066591;28;20033;-69
2021/09/27 03:42:05;;;;;;;19.70;11.95;;;12.30;95.30;;;;;;5056547;28;20362;-69
2021/09/27 03:44:57;;;;;;;19.42;12.32;;;12.30;95.40;;;;;;5065553;28;20034;-69
2021/09/27 03:47:38;;;;;;;15.85;11.20;;;12.40;95.90;;;;;;5059605;28;20044;-69
2021/09/27 03:50:28;;;;;;;19.75;11.88;;;12.30;96.00;;;;;;5074452;28;20307;-69
2021/09/27 03:53:08;;;;;;;18.00;11.30;;;12.30;96.10;;;;;;5069800;28;20100;-68
2021/09/27 03:55:48;;;;;;;21.08;12.57;;;12.30;95.60;;;;;;5073922;28;20056;-68
2021/09/27 03:58:28;;;;;;;18.83;12.50;;;12.30;96.00;;;;;;5075990;28;20021;-69
2021/09/27 04:01:00;;;;;;;19.65;12.65;;;12.30;95.70;;;;;;5072603;28;20413;-69
2021/09/27 04:04:12;;;;;;;17.60;11.55;;;12.30;95.30;;;;;;5072320;28;20028;-69
2021/09/27 04:06:55;;;;;;;17.25;11.65;;;12.40;95.50;;;;;;5061710;28;20313;-68
2021/09/27 04:09:49;;;;;;;15.45;10.45;;;12.40;95.40;;;;;;5071503;28;20024;-69
2021/09/27 04:12:21;;;;;;;18.67;11.32;;;12.50;95.60;;;;;;5055512;28;20494;-69
2021/09/27 04:15:13;;;;;;;18.13;12.15;;;12.40;96.20;;;;;;5069807;28;20513;-69
2021/09/27 04:18:11;;;;;;;20.10;11.73;;;12.30;96.30;;;;;;5056894;28;20048;-69
2021/09/27 04:21:03;;;;;;;16.85;10.70;;;12.20;96.60;;;;;;5064566;28;20054;-69
2021/09/27 04:23:44;;;;;;;18.70;11.05;;;12.10;96.60;;;;;;5065984;28;20052;-68
2021/09/27 04:26:18;;;;;;;17.58;11.38;;;11.90;96.30;;;;;;5060873;28;20418;-68
2021/09/27 04:29:02;;;;;;;16.83;11.77;;;11.90;95.70;;;;;;5075060;28;20036;-68
2021/09/27 04:31:53;;;;;;;19.75;12.15;;;12.00;95.10;;;;;;5065305;28;20037;-71
2021/09/27 04:34:47;;;;;;;17.67;12.00;;;12.10;95.30;;;;;;5071516;28;20066;-70
2021/09/27 04:37:17;;;;;;;19.38;12.45;;;12.10;95.50;;;;;;5057481;28;20025;-69
2021/09/27 04:39:45;;;;;;;21.60;12.70;;;12.10;94.90;;;;;;5063198;28;20021;-69
2021/09/27 04:42:45;;;;;;;20.30;12.80;;;12.20;95.30;;;;;;5061858;28;20036;-69
2021/09/27 04:45:28;;;;;;;16.92;11.38;;;12.20;95.40;;;;;;5066635;28;20028;-69
2021/09/27 04:47:59;;;;;;;20.73;12.48;;;12.30;95.50;;;;;;5068599;28;20367;-69
2021/09/27 04:50:56;;;;;;;19.77;10.85;;;12.30;96.30;;;;;;5069246;28;20737;-69
2021/09/27 04:53:51;;;;;;;19.05;11.32;;;12.10;96.40;;;;;;5065206;28;20410;-68
2021/09/27 04:56:38;;;;;;;19.65;11.23;;;11.90;96.60;;;;;;5061401;28;20048;-68
2021/09/27 04:59:35;;;;;;;18.75;11.15;;;11.90;95.40;;;;;;5066091;28;20052;-68
2021/09/27 05:02:06;;;;;;;19.08;11.65;;;12.00;95.20;;;;;;5059868;28;20120;-69
2021/09/27 05:04:43;;;;;;;21.17;12.70;;;12.00;95.50;;;;;;5065658;28;20035;-69
2021/09/27 05:07:41;;;;;;;19.95;13.30;;;11.90;95.70;;;;;;5064980;28;20064;-68
2021/09/27 05:10:37;;;;;;;19.38;12.40;;;11.90;95.00;;;;;;5055078;28;20121;-69
2021/09/27 05:13:21;;;;;;;16.63;10.75;;;11.90;95.00;;;;;;5068732;28;20035;-68
2021/09/27 05:16:07;;;;;;;17.10;11.20;;;11.90;95.00;;;;;;5069360;28;20053;-69
2021/09/27 05:18:54;;;;;;;20.70;12.73;;;11.80;95.20;;;;;;5074835;28;20036;-69
2021/09/27 05:21:36;;;;;;;18.73;11.85;;;11.80;94.70;;;;;;5066100;28;20060;-69
2021/09/27 05:24:19;;;;;;;21.90;13.20;;;11.70;94.80;;;;;;5068121;28;20028;-69
2021/09/27 05:27:03;;;;;;;20.20;11.60;;;11.70;94.40;;;;;;5074482;28;20036;-70
2021/09/27 05:29:59;;;;;;;18.17;11.73;;;11.70;94.30;;;;;;5061067;28;20537;-69
2021/09/27 05:32:48;;;;;;;25.52;14.10;;;11.70;94.00;;;;;;5063920;28;20028;-70
2021/09/27 05:35:19;;;;;;;19.63;12.00;;;11.70;93.50;;;;;;5074366;28;20105;-69
2021/09/27 05:38:28;;;;;;;18.67;12.25;;;11.80;93.50;;;;;;5075065;28;20024;-69
2021/09/27 05:40:54;;;;;;;21.10;11.98;;;11.80;93.80;;;;;;5061336;28;20299;-68
2021/09/27 05:43:35;;;;;;;22.83;13.25;;;11.80;93.90;;;;;;5069383;28;20020;-69
2021/09/27 05:46:09;;;;;;;19.55;12.60;;;11.90;93.60;;;;;;5068732;28;20016;-69
2021/09/27 05:48:47;;;;;;;23.15;12.52;;;11.90;93.60;;;;;;5073671;28;20063;-69
2021/09/27 05:51:47;;;;;;;20.08;12.77;;;12.00;94.10;;;;;;5072795;28;20029;-69
2021/09/27 05:54:27;;;;;;;19.42;12.23;;;12.00;94.30;;;;;;5061938;28;20033;-70
2021/09/27 05:57:15;;;;;;;18.77;11.55;;;12.00;94.20;;;;;;5053712;28;20029;-69
2021/09/27 05:59:58;;;;;;;19.98;10.95;;;11.90;95.00;;;;;;5054816;28;20049;-69
2021/09/27 06:02:36;;;;;;;20.52;11.65;;;11.80;95.10;;;;;;5054807;28;20028;-69
2021/09/27 06:05:25;;;;;;;18.08;11.88;;;11.90;94.40;;;;;;5054644;28;20051;-69
2021/09/27 06:08:00;;;;;;;19.15;11.30;;;12.10;94.10;;;;;;5060111;28;20021;-69
2021/09/27 06:10:40;;;;;;;17.85;11.68;;;12.30;94.20;;;;;;5076127;28;20096;-69
2021/09/27 06:13:27;;;;;;;16.77;11.10;;;12.40;95.00;;;;;;5077789;28;20025;-69
2021/09/27 06:16:16;;;;;;;18.65;11.00;;;12.50;95.20;;;;;;5078269;28;20024;-69
2021/09/27 06:19:06;;;;;;;19.45;10.20;;;12.60;95.70;;;;;;5048600;28;20370;-69
2021/09/27 06:21:47;;;;;;;18.27;11.85;;;12.70;96.20;;;;;;5078672;28;20051;-70
2021/09/27 06:24:37;;;;;;;14.32;9.57;;;12.80;96.80;;;;;;5077842;28;20019;-69
2021/09/27 06:27:23;;;;;;;15.18;9.07;;;12.90;96.90;;;;;;5077200;28;20366;-69
2021/09/27 06:30:25;;;;;;;16.95;10.32;;;13.00;97.50;;;;;;5078178;28;20310;-70
2021/09/27 06:33:04;;;;;;;21.92;13.55;;;13.10;97.90;;;;;;5077975;28;20052;-69
2021/09/27 06:35:34;;;;;;;39.85;26.92;;;13.10;98.00;;;;;;5078070;28;20077;-70
2021/09/27 06:38:06;;;;;;;24.15;15.02;;;13.20;98.00;;;;;;5077911;28;20028;-70
2021/09/27 06:40:34;;;;;;;17.08;10.25;;;13.20;98.00;;;;;;5077806;28;20111;-69
2021/09/27 06:43:00;;;;;;;24.40;10.68;;;13.30;98.00;;;;;;5073284;28;20021;-69
2021/09/27 06:45:26;;;;;;;19.98;13.32;;;13.30;98.00;;;;;;5057762;28;20051;-69
2021/09/27 06:47:52;;;;;;;20.38;10.15;;;13.30;98.00;;;;;;5057963;28;20424;-69
2021/09/27 06:50:18;;;;;;;15.82;8.90;;;13.40;98.00;;;;;;5057762;28;20028;-69
2021/09/27 06:52:43;;;;;;;16.75;9.75;;;13.40;98.00;;;;;;5057668;28;20314;-69
2021/09/27 06:55:11;;;;;;;13.77;8.82;;;13.40;98.00;;;;;;5057567;28;20075;-69
2021/09/27 06:57:40;;;;;;;12.25;8.43;;;13.60;98.00;;;;;;5056661;28;20043;-69
2021/09/27 07:00:11;;;;;;;13.13;8.07;;;13.70;98.00;;;;;;5057646;28;20295;-70
2021/09/27 07:02:37;;;;;;;12.77;8.40;;;13.90;98.00;;;;;;5057566;28;20029;-69
2021/09/27 07:05:03;;;;;;;14.25;8.57;;;14.00;98.00;;;;;;5058261;28;20029;-69
2021/09/27 07:07:29;;;;;;;12.07;7.78;;;14.20;98.00;;;;;;5064109;28;20035;-69
2021/09/27 07:09:55;;;;;;;11.82;7.97;;;14.30;98.00;;;;;;5076120;28;20341;-68
2021/09/27 07:12:20;;;;;;;12.50;8.15;;;14.50;98.00;;;;;;5070762;28;20028;-69
2021/09/27 07:14:46;;;;;;;11.70;8.30;;;14.70;98.00;;;;;;5077627;28;20028;-68
2021/09/27 07:17:12;;;;;;;14.55;7.78;;;14.70;98.00;;;;;;5077402;28;20041;-69
2021/09/27 07:19:40;;;;;;;10.95;7.88;;;14.80;98.00;;;;;;5076462;28;20420;-68
2021/09/27 07:22:08;;;;;;;9.88;6.78;;;14.90;98.00;;;;;;5077351;28;20032;-68
2021/09/27 07:24:34;;;;;;;12.30;7.28;;;15.00;98.00;;;;;;5077328;28;20326;-68
2021/09/27 07:26:59;;;;;;;10.77;7.40;;;15.30;98.00;;;;;;5074012;28;20024;-69
2021/09/27 07:29:25;;;;;;;11.40;7.22;;;15.50;98.00;;;;;;5057302;28;20085;-70
2021/09/27 07:31:52;;;;;;;10.07;6.80;;;15.80;98.00;;;;;;5057197;28;20020;-70
2021/09/27 07:34:19;;;;;;;12.50;7.10;;;16.00;98.00;;;;;;5057522;28;20067;-70
2021/09/27 07:36:44;;;;;;;9.98;6.65;;;16.00;98.00;;;;;;5071566;28;20028;-69
2021/09/27 07:39:14;;;;;;;10.30;7.13;;;16.00;98.00;;;;;;5076886;28;20082;-69
2021/09/27 07:41:39;;;;;;;10.55;6.95;;;16.20;98.00;;;;;;5074330;28;20318;-69
2021/09/27 07:44:07;;;;;;;9.15;6.78;;;16.40;98.00;;;;;;5077138;28;20028;-69
2021/09/27 07:46:33;;;;;;;9.05;6.00;;;16.70;98.00;;;;;;5077061;28;20490;-68
2021/09/27 07:48:59;;;;;;;7.82;5.78;;;16.90;98.00;;;;;;5077014;28;20040;-69
2021/09/27 07:51:25;;;;;;;9.98;5.22;;;17.10;98.00;;;;;;5076953;28;20024;-68
2021/09/27 07:53:51;;;;;;;8.35;5.05;;;17.30;96.60;;;;;;5076969;28;20023;-69
2021/09/27 07:56:17;;;;;;;9.45;5.00;;;17.60;96.30;;;;;;5075689;28;20095;-69
2021/09/27 07:58:43;;;;;;;11.18;5.72;;;17.70;94.90;;;;;;5076854;28;20331;-69
2021/09/27 08:01:09;;;;;;;9.27;5.57;;;17.90;94.50;;;;;;5076663;28;20096;-69
2021/09/27 08:03:34;;;;;;;9.30;4.72;;;18.00;94.70;;;;;;5076760;28;20082;-69
2021/09/27 08:06:00;;;;;;;7.85;5.18;;;18.10;93.90;;;;;;5064518;28;20314;-69
2021/09/27 08:08:26;;;;;;;7.20;4.82;;;18.40;93.30;;;;;;5072953;28;20032;-69
2021/09/27 08:10:51;;;;;;;7.05;4.75;;;19.10;91.30;;;;;;5074843;28;20048;-69
2021/09/27 08:13:17;;;;;;;7.13;4.05;;;20.20;88.50;;;;;;5076395;28;20023;-69
2021/09/27 08:15:47;;;;;;;5.55;3.60;;;21.50;84.60;;;;;;5076024;28;20107;-69
2021/09/27 08:18:15;;;;;;;7.13;3.45;;;22.30;80.90;;;;;;5076329;28;20059;-70
2021/09/27 08:20:44;;;;;;;6.38;3.75;;;22.80;79.60;;;;;;5076113;28;20028;-69
2021/09/27 08:23:11;;;;;;;7.15;3.55;;;22.80;79.00;;;;;;5076414;28;20033;-69
2021/09/27 08:25:38;;;;;;;6.53;3.72;;;23.20;77.90;;;;;;5075786;28;20452;-69
2021/09/27 08:28:05;;;;;;;7.20;4.05;;;22.80;78.50;;;;;;5075810;28;20028;-69
2021/09/27 08:30:35;;;;;;;10.18;5.18;;;21.90;80.80;;;;;;5076339;28;20024;-69
2021/09/27 08:33:01;;;;;;;8.80;4.15;;;22.00;81.80;;;;;;5061115;28;20025;-69
2021/09/27 08:35:29;;;;;;;7.55;4.60;;;22.50;81.10;;;;;;5056125;28;20028;-69
2021/09/27 08:37:55;;;;;;;7.20;4.30;;;23.00;79.20;;;;;;5073519;28;20028;-69
2021/09/27 08:40:52;;;;;;;8.57;5.00;;;23.40;78.30;;;;;;5076064;28;20032;-69
2021/09/27 08:43:49;;;;;;;6.65;4.07;;;23.70;78.20;;;;;;5074942;28;20021;-70
2021/09/27 08:46:22;;;;;;;7.38;3.92;;;24.00;77.10;;;;;;5076023;28;20099;-70
2021/09/27 08:49:21;;;;;;;6.65;3.63;;;23.80;76.20;;;;;;5075735;28;20059;-70
2021/09/27 08:51:47;;;;;;;8.52;3.58;;;24.60;74.70;;;;;;5075706;28;20356;-70
2021/09/27 08:54:26;;;;;;;7.00;3.72;;;24.80;74.30;;;;;;5075745;28;20119;-70
2021/09/27 08:57:01;;;;;;;6.18;3.47;;;24.40;74.00;;;;;;5074444;28;20044;-70
2021/09/27 08:59:28;;;;;;;6.15;3.72;;;24.60;73.30;;;;;;5075857;28;20032;-69
2021/09/27 09:02:10;;;;;;;5.10;3.28;;;24.10;74.20;;;;;;5075658;28;20080;-69
2021/09/27 09:05:05;;;;;;;4.95;2.97;;;24.30;74.80;;;;;;5072902;28;20025;-69
2021/09/27 09:07:31;;;;;;;6.07;2.78;;;24.20;74.50;;;;;;5072493;28;20104;-69
2021/09/27 09:10:04;;;;;;;5.03;3.13;;;23.80;74.10;;;;;;5075554;28;20021;-70
2021/09/27 09:12:30;;;;;;;5.45;3.00;;;24.40;74.70;;;;;;5060393;28;20032;-70
2021/09/27 09:15:01;;;;;;;4.68;2.60;;;25.10;73.40;;;;;;5054302;28;20048;-70
2021/09/27 09:17:35;;;;;;;6.18;2.72;;;25.50;71.50;;;;;;5055392;28;20049;-70
2021/09/27 09:20:03;;;;;;;;;;;25.30;71.30;;;;;;5066941;28;20032;-69
2021/09/27 09:22:33;;;;;;;4.32;2.55;;;25.20;70.70;;;;;;5075819;28;19927;-70
2021/09/27 09:24:59;;;;;;;5.78;2.58;;;25.20;70.70;;;;;;5075364;28;20021;-69
2021/09/27 09:27:25;;;;;;;4.38;2.20;;;25.50;70.00;;;;;;5074327;28;20028;-69
2021/09/27 09:29:52;;;;;;;4.57;2.10;;;25.90;70.10;;;;;;5075406;28;20059;-70
2021/09/27 09:32:27;;;;;;;4.60;2.40;;;26.70;68.30;;;;;;5075380;28;20652;-70
2021/09/27 09:35:15;;;;;;;5.10;2.67;;;26.80;66.80;;;;;;5075211;28;20021;-69
2021/09/27 09:37:50;;;;;;;5.43;2.30;;;26.00;68.90;;;;;;5075639;28;20070;-70
2021/09/27 09:40:39;;;;;;;3.83;2.10;;;25.60;69.00;;;;;;5075263;28;20027;-70
2021/09/27 09:43:31;;;;;;;4.38;2.10;;;26.60;68.30;;;;;;5068860;28;20095;-70
2021/09/27 09:46:14;;;;;;;4.00;2.15;;;27.10;66.10;;;;;;5078789;28;20094;-70
2021/09/27 09:49:16;;;;;;;5.07;2.55;;;25.20;69.10;;;;;;5078522;28;20017;-70
2021/09/27 09:51:49;;;;;;;4.15;2.42;;;23.60;73.50;;;;;;5078825;28;20041;-69
2021/09/27 09:54:27;;;;;;;6.03;2.35;;;23.00;74.60;;;;;;5078513;28;20028;-69
2021/09/27 09:56:58;;;;;;;4.15;2.40;;;23.20;75.70;;;;;;5076910;28;20025;-69
2021/09/27 09:59:35;;;;;;;4.22;2.17;;;24.30;73.70;;;;;;5079065;28;20413;-69
2021/09/27 10:02:02;;;;;;;4.22;2.15;;;25.20;70.40;;;;;;5079082;28;20032;-69
2021/09/27 10:04:41;;;;;;;5.20;2.38;;;25.70;70.60;;;;;;5075210;28;20108;-69
2021/09/27 10:07:17;;;;;;;3.75;2.05;;;25.60;68.90;;;;;;5069269;28;20036;-69
2021/09/27 10:09:51;;;;;;;4.72;2.20;;;25.20;69.40;;;;;;5078801;28;20086;-69
2021/09/27 10:12:49;;;;;;;4.28;2.17;;;25.10;70.20;;;;;;5070552;28;20395;-69
2021/09/27 10:15:27;;;;;;;3.95;2.22;;;25.50;70.40;;;;;;5063638;28;20045;-69
2021/09/27 10:18:14;;;;;;;5.07;2.30;;;26.10;68.60;;;;;;5078169;28;20047;-69
2021/09/27 10:20:50;;;;;;;4.40;2.30;;;26.40;67.60;;;;;;5078648;28;20067;-71
2021/09/27 10:23:35;;;;;;;5.85;2.47;;;26.20;68.80;;;;;;5078452;28;20067;-70
2021/09/27 10:26:30;;;;;;;5.43;2.38;;;26.10;67.90;;;;;;5074873;28;20037;-70
2021/09/27 10:29:05;;;;;;;5.25;2.10;;;26.50;66.70;;;;;;5069597;28;20032;-69
2021/09/27 10:31:33;;;;;;;4.55;2.10;;;27.40;65.70;;;;;;5077485;28;20334;-69
2021/09/27 10:34:06;;;;;;;7.15;2.60;;;27.30;65.40;;;;;;5078455;28;20025;-70
2021/09/27 10:36:39;;;;;;;5.55;2.20;;;25.50;68.40;;;;;;5078486;28;20024;-70
2021/09/27 10:39:09;;;;;;;4.07;2.20;;;25.10;69.70;;;;;;5078397;28;20070;-69
2021/09/27 10:41:37;;;;;;;4.82;2.20;;;25.00;69.30;;;;;;5077045;28;20037;-69
2021/09/27 10:44:13;;;;;;;4.05;2.45;;;24.30;69.10;;;;;;5058296;28;20082;-69
2021/09/27 10:46:42;;;;;;;5.78;2.30;;;23.00;73.00;;;;;;5058136;28;20025;-69
2021/09/27 10:49:31;;;;;;;4.75;2.03;;;22.70;74.40;;;;;;5058211;28;20029;-69
2021/09/27 10:52:10;;;;;;;4.65;2.40;;;22.90;73.70;;;;;;5058090;28;20025;-69
2021/09/27 10:54:45;;;;;;;4.88;1.98;;;23.30;75.10;;;;;;5064346;28;20020;-69
2021/09/27 10:57:19;;;;;;;5.30;1.90;;;24.50;70.50;;;;;;5075944;28;20029;-69
2021/09/27 10:59:59;;;;;;;3.95;1.90;;;25.00;69.20;;;;;;5078005;28;20299;-69
2021/09/27 11:02:40;;;;;;;4.07;1.83;;;25.10;66.30;;;;;;5077833;28;20035;-69
2021/09/27 11:05:33;;;;;;;3.47;1.60;;;24.40;67.20;;;;;;5066836;28;20024;-69
2021/09/27 11:08:09;;;;;;;10.07;1.80;;;24.70;69.00;;;;;;5065900;28;20033;-69
2021/09/27 11:10:45;;;;;;;3.42;1.73;;;25.30;66.70;;;;;;5077175;28;20020;-69
2021/09/27 11:13:29;;;;;;;6.18;2.00;;;24.90;66.80;;;;;;5076734;28;20393;-69
2021/09/27 11:15:56;;;;;;;3.53;1.83;;;25.50;67.60;;;;;;5077595;28;20031;-69
2021/09/27 11:18:26;;;;;;;3.15;1.65;;;25.60;66.70;;;;;;5077492;28;20068;-69
2021/09/27 11:20:57;;;;;;;3.10;1.60;;;25.20;66.40;;;;;;5077644;28;20025;-69
2021/09/27 11:23:26;;;;;;;4.03;2.17;;;24.70;67.80;;;;;;5077493;28;20099;-69
2021/09/27 11:26:26;;;;;;;3.22;1.70;;;24.10;70.10;;;;;;5076034;28;20028;-69
2021/09/27 11:28:53;;;;;;;5.05;2.40;;;24.30;70.20;;;;;;5077141;28;20448;-69
2021/09/27 11:31:28;;;;;;;4.43;2.20;;;24.70;69.30;;;;;;5077413;28;20033;-69
2021/09/27 11:34:13;;;;;;;5.15;2.10;;;24.60;70.20;;;;;;5076795;28;20024;-68
2021/09/27 11:36:48;;;;;;;5.03;2.13;;;24.30;69.30;;;;;;5057143;28;20368;-69
2021/09/27 11:39:15;;;;;;;4.18;2.10;;;24.50;71.90;;;;;;5057261;28;20017;-70
2021/09/27 11:42:01;;;;;;;3.85;1.95;;;24.80;70.50;;;;;;5055772;28;20083;-69
2021/09/27 11:44:31;;;;;;;3.20;1.80;;;25.30;68.80;;;;;;5067325;28;20455;-69
2021/09/27 11:47:10;;;;;;;3.28;1.67;;;26.00;66.30;;;;;;5076717;28;20120;-69
2021/09/27 11:50:00;;;;;;;3.92;1.70;;;26.50;65.70;;;;;;5076904;28;20325;-69
2021/09/27 11:52:26;;;;;;;3.58;1.50;;;26.70;63.60;;;;;;5076736;28;20056;-69
2021/09/27 11:55:02;;;;;;;3.65;1.83;;;26.20;65.20;;;;;;5077068;28;20067;-69
2021/09/27 11:57:52;;;;;;;4.43;1.77;;;25.50;67.60;;;;;;5075575;28;20033;-69
2021/09/27 12:00:24;;;;;;;4.53;2.05;;;25.20;68.70;;;;;;5074573;28;20351;-69
2021/09/27 12:03:05;;;;;;;3.85;2.15;;;24.50;69.40;;;;;;5056648;28;20025;-69
2021/09/27 12:06:00;;;;;;;4.18;1.92;;;24.10;70.40;;;;;;5072997;28;20067;-69
2021/09/27 12:08:35;;;;;;;3.45;1.98;;;24.40;69.10;;;;;;5075571;28;20103;-69
2021/09/27 12:11:12;;;;;;;4.13;1.90;;;23.80;69.80;;;;;;5075544;28;20020;-69
2021/09/27 12:13:56;;;;;;;3.42;2.05;;;23.60;70.90;;;;;;5075944;28;20441;-69
2021/09/27 12:16:50;;;;;;;3.50;1.90;;;23.60;72.30;;;;;;5075315;28;20044;-69
2021/09/27 12:19:25;;;;;;;4.63;2.15;;;23.80;70.80;;;;;;5067999;28;20040;-69
2021/09/27 12:21:56;;;;;;;3.92;1.75;;;24.30;69.70;;;;;;5072982;28;20028;-69
2021/09/27 12:24:30;;;;;;;5.28;2.20;;;24.20;68.70;;;;;;5072117;28;20024;-69
2021/09/27 12:27:11;;;;;;;;;;;23.70;69.80;;;;;;5055379;28;20037;-69
2021/09/27 12:30:08;;;;;;;4.00;2.00;;;23.50;70.10;;;;;;5056150;28;20301;-69
2021/09/27 12:32:37;;;;;;;4.40;2.10;;;23.70;70.30;;;;;;5053923;28;20044;-69
2021/09/27 12:35:08;;;;;;;3.90;2.20;;;23.60;70.90;;;;;;5067227;28;20036;-70
2021/09/27 12:37:37;;;;;;;3.55;1.80;;;23.80;70.20;;;;;;5066364;28;20056;-69
2021/09/27 12:40:09;;;;;;;3.92;1.80;;;23.90;69.20;;;;;;5056004;28;20070;-70
2021/09/27 12:42:44;;;;;;;3.72;1.98;;;23.70;69.70;;;;;;5054899;28;20041;-69
2021/09/27 12:45:20;;;;;;;4.82;1.70;;;23.30;70.80;;;;;;5056098;28;20100;-69
2021/09/27 12:47:47;;;;;;;5.32;2.17;;;22.90;71.40;;;;;;5055773;28;20028;-69
2021/09/27 12:50:22;;;;;;;3.63;1.92;;;22.70;72.80;;;;;;5056726;28;20033;-69
2021/09/27 12:53:02;;;;;;;4.70;2.00;;;23.00;73.50;;;;;;5055554;28;20029;-68
2021/09/27 12:55:54;;;;;;;4.00;1.90;;;23.40;71.50;;;;;;5055992;28;20025;-69
2021/09/27 12:58:35;;;;;;;4.57;1.98;;;23.30;70.80;;;;;;5074363;28;20377;-69
2021/09/27 13:01:04;;;;;;;4.65;1.90;;;23.00;71.90;;;;;;5072477;28;20017;-69
2021/09/27 13:03:31;;;;;;;6.28;2.28;;;22.60;71.40;;;;;;5055822;28;20039;-69
2021/09/27 13:06:10;;;;;;;6.13;2.42;;;22.40;72.50;;;;;;5062566;28;20432;-68
2021/09/27 13:08:52;;;;;;;4.43;2.30;;;22.20;73.80;;;;;;5075530;28;20031;-68
2021/09/27 13:11:37;;;;;;;4.45;2.35;;;21.90;74.30;;;;;;5074456;28;20028;-69
2021/09/27 13:14:25;;;;;;;4.38;2.13;;;21.60;74.40;;;;;;5075616;28;20024;-68
2021/09/27 13:17:08;;;;;;;4.97;2.40;;;21.40;76.10;;;;;;5073963;28;20051;-70
2021/09/27 13:19:37;;;;;;;5.05;2.70;;;21.40;76.50;;;;;;5074757;28;20024;-69
2021/09/27 13:22:03;;;;;;;4.40;2.10;;;21.50;76.30;;;;;;5075225;28;20031;-71
2021/09/27 13:24:30;;;;;;;4.65;2.00;;;21.20;77.40;;;;;;5073391;28;20034;-69
2021/09/27 13:27:08;;;;;;;4.07;2.05;;;21.10;78.00;;;;;;5054077;28;20032;-69